sensor_id;sensor_type;location;lat;lon;timestamp;temperature;humidity
43099;DHT22;28715;51.988;6.020;2022-07-23T00:02:08;18.00;96.90
43099;DHT22;28715;51.988;6.020;2022-07-23T00:04:34;17.90;97.10
43099;DHT22;28715;51.988;6.020;2022-07-23T00:06:59;17.80;97.30
43099;DHT22;28715;51.988;6.020;2022-07-23T00:09:25;17.70;97.30
43099;DHT22;28715;51.988;6.020;2022-07-23T00:11:51;17.70;97.30
43099;DHT22;28715;51.988;6.020;2022-07-23T00:14:18;17.60;97.50
43099;DHT22;28715;51.988;6.020;2022-07-23T00:16:44;17.50;97.60
43099;DHT22;28715;51.988;6.020;2022-07-23T00:19:09;17.50;97.90
43099;DHT22;28715;51.988;6.020;2022-07-23T00:21:35;17.50;98.10
43099;DHT22;28715;51.988;6.020;2022-07-23T00:24:01;17.40;98.20
43099;DHT22;28715;51.988;6.020;2022-07-23T00:26:26;17.40;98.20
43099;DHT22;28715;51.988;6.020;2022-07-23T00:28:52;17.30;98.30
43099;DHT22;28715;51.988;6.020;2022-07-23T00:31:18;17.30;98.40
43099;DHT22;28715;51.988;6.020;2022-07-23T00:33:43;17.30;98.40
43099;DHT22;28715;51.988;6.020;2022-07-23T00:36:09;17.30;98.50
43099;DHT22;28715;51.988;6.020;2022-07-23T00:38:34;17.20;98.60
43099;DHT22;28715;51.988;6.020;2022-07-23T00:41:00;17.10;98.80
43099;DHT22;28715;51.988;6.020;2022-07-23T00:43:26;17.10;99.20
43099;DHT22;28715;51.988;6.020;2022-07-23T00:45:51;17.10;99.00
43099;DHT22;28715;51.988;6.020;2022-07-23T00:48:17;17.00;99.10
43099;DHT22;28715;51.988;6.020;2022-07-23T00:50:43;17.10;99.20
43099;DHT22;28715;51.988;6.020;2022-07-23T00:53:09;17.10;99.30
43099;DHT22;28715;51.988;6.020;2022-07-23T00:55:35;17.00;99.20
43099;DHT22;28715;51.988;6.020;2022-07-23T00:58:01;17.00;99.30
43099;DHT22;28715;51.988;6.020;2022-07-23T01:00:29;17.00;99.30
43099;DHT22;28715;51.988;6.020;2022-07-23T01:02:54;16.90;99.40
43099;DHT22;28715;51.988;6.020;2022-07-23T01:05:20;16.90;99.50
43099;DHT22;28715;51.988;6.020;2022-07-23T01:07:51;17.00;99.70
43099;DHT22;28715;51.988;6.020;2022-07-23T01:10:16;16.90;99.70
43099;DHT22;28715;51.988;6.020;2022-07-23T01:13:05;16.90;99.70
43099;DHT22;28715;51.988;6.020;2022-07-23T01:15:33;16.90;99.90
43099;DHT22;28715;51.988;6.020;2022-07-23T01:18:00;16.90;99.90
43099;DHT22;28715;51.988;6.020;2022-07-23T01:20:26;16.90;99.90
43099;DHT22;28715;51.988;6.020;2022-07-23T01:22:52;16.90;99.90
43099;DHT22;28715;51.988;6.020;2022-07-23T01:25:18;16.80;99.90
43099;DHT22;28715;51.988;6.020;2022-07-23T01:27:44;16.80;99.90
43099;DHT22;28715;51.988;6.020;2022-07-23T01:30:10;16.80;99.90
43099;DHT22;28715;51.988;6.020;2022-07-23T01:32:36;16.70;99.90
43099;DHT22;28715;51.988;6.020;2022-07-23T01:35:01;16.70;99.90
43099;DHT22;28715;51.988;6.020;2022-07-23T01:37:27;16.70;99.90
43099;DHT22;28715;51.988;6.020;2022-07-23T01:39:53;16.70;99.90
43099;DHT22;28715;51.988;6.020;2022-07-23T01:42:18;16.70;99.90
43099;DHT22;28715;51.988;6.020;2022-07-23T01:44:44;16.60;99.90
43099;DHT22;28715;51.988;6.020;2022-07-23T01:47:09;16.70;99.90
43099;DHT22;28715;51.988;6.020;2022-07-23T01:49:35;16.60;99.90
43099;DHT22;28715;51.988;6.020;2022-07-23T01:52:01;16.60;99.90
43099;DHT22;28715;51.988;6.020;2022-07-23T01:54:27;16.60;99.90
43099;DHT22;28715;51.988;6.020;2022-07-23T01:56:53;16.60;99.90
43099;DHT22;28715;51.988;6.020;2022-07-23T01:59:19;16.50;99.90
43099;DHT22;28715;51.988;6.020;2022-07-23T02:01:44;16.50;99.90
43099;DHT22;28715;51.988;6.020;2022-07-23T02:04:10;16.50;99.90
43099;DHT22;28715;51.988;6.020;2022-07-23T02:06:35;16.50;99.90
43099;DHT22;28715;51.988;6.020;2022-07-23T02:09:01;16.50;99.90
43099;DHT22;28715;51.988;6.020;2022-07-23T02:11:27;16.50;99.90
43099;DHT22;28715;51.988;6.020;2022-07-23T02:13:52;16.50;99.90
43099;DHT22;28715;51.988;6.020;2022-07-23T02:16:18;16.50;99.90
43099;DHT22;28715;51.988;6.020;2022-07-23T02:18:43;16.50;99.90
43099;DHT22;28715;51.988;6.020;2022-07-23T02:21:09;16.40;99.90
43099;DHT22;28715;51.988;6.020;2022-07-23T02:23:35;16.40;99.90
43099;DHT22;28715;51.988;6.020;2022-07-23T02:26:00;16.30;99.90
43099;DHT22;28715;51.988;6.020;2022-07-23T02:28:26;16.30;99.90
43099;DHT22;28715;51.988;6.020;2022-07-23T02:30:51;16.30;99.90
43099;DHT22;28715;51.988;6.020;2022-07-23T02:33:17;16.20;99.90
43099;DHT22;28715;51.988;6.020;2022-07-23T02:35:42;16.20;99.90
43099;DHT22;28715;51.988;6.020;2022-07-23T02:38:08;16.20;99.90
43099;DHT22;28715;51.988;6.020;2022-07-23T02:40:33;16.20;99.90
43099;DHT22;28715;51.988;6.020;2022-07-23T02:42:59;16.20;99.90
43099;DHT22;28715;51.988;6.020;2022-07-23T02:45:24;16.10;99.90
43099;DHT22;28715;51.988;6.020;2022-07-23T02:47:50;16.10;99.90
43099;DHT22;28715;51.988;6.020;2022-07-23T02:50:16;16.00;99.90
43099;DHT22;28715;51.988;6.020;2022-07-23T02:52:41;16.10;99.90
43099;DHT22;28715;51.988;6.020;2022-07-23T02:55:07;16.00;99.90
43099;DHT22;28715;51.988;6.020;2022-07-23T02:57:33;16.00;99.90
43099;DHT22;28715;51.988;6.020;2022-07-23T02:59:58;15.90;99.90
43099;DHT22;28715;51.988;6.020;2022-07-23T03:02:24;15.90;99.90
43099;DHT22;28715;51.988;6.020;2022-07-23T03:04:49;15.90;99.90
43099;DHT22;28715;51.988;6.020;2022-07-23T03:07:16;15.80;99.90
43099;DHT22;28715;51.988;6.020;2022-07-23T03:09:42;15.80;99.90
43099;DHT22;28715;51.988;6.020;2022-07-23T03:12:08;15.70;99.90
43099;DHT22;28715;51.988;6.020;2022-07-23T03:14:33;15.70;99.90
43099;DHT22;28715;51.988;6.020;2022-07-23T03:16:59;15.70;99.90
43099;DHT22;28715;51.988;6.020;2022-07-23T03:19:25;15.70;99.90
43099;DHT22;28715;51.988;6.020;2022-07-23T03:21:51;15.70;99.90
43099;DHT22;28715;51.988;6.020;2022-07-23T03:24:17;15.70;99.90
43099;DHT22;28715;51.988;6.020;2022-07-23T03:26:43;15.70;99.90
43099;DHT22;28715;51.988;6.020;2022-07-23T03:29:09;15.70;99.90
43099;DHT22;28715;51.988;6.020;2022-07-23T03:31:35;15.70;99.90
43099;DHT22;28715;51.988;6.020;2022-07-23T03:34:00;15.60;99.90
43099;DHT22;28715;51.988;6.020;2022-07-23T03:36:26;15.60;99.90
43099;DHT22;28715;51.988;6.020;2022-07-23T03:38:52;15.60;99.90
43099;DHT22;28715;51.988;6.020;2022-07-23T03:41:18;15.60;99.90
43099;DHT22;28715;51.988;6.020;2022-07-23T03:43:44;15.60;99.90
43099;DHT22;28715;51.988;6.020;2022-07-23T03:46:10;15.60;99.90
43099;DHT22;28715;51.988;6.020;2022-07-23T03:48:36;15.50;99.90
43099;DHT22;28715;51.988;6.020;2022-07-23T03:51:01;15.50;99.90
43099;DHT22;28715;51.988;6.020;2022-07-23T03:53:27;15.50;99.90
43099;DHT22;28715;51.988;6.020;2022-07-23T03:55:53;15.50;99.90
43099;DHT22;28715;51.988;6.020;2022-07-23T03:58:18;15.50;99.90
43099;DHT22;28715;51.988;6.020;2022-07-23T04:00:44;15.40;99.90
43099;DHT22;28715;51.988;6.020;2022-07-23T04:03:11;15.50;99.90
43099;DHT22;28715;51.988;6.020;2022-07-23T04:05:36;15.40;99.90
43099;DHT22;28715;51.988;6.020;2022-07-23T04:08:02;15.40;99.90
43099;DHT22;28715;51.988;6.020;2022-07-23T04:10:28;15.40;99.90
43099;DHT22;28715;51.988;6.020;2022-07-23T04:12:53;15.40;99.90
43099;DHT22;28715;51.988;6.020;2022-07-23T04:15:19;15.40;99.90
43099;DHT22;28715;51.988;6.020;2022-07-23T04:17:44;15.40;99.90
43099;DHT22;28715;51.988;6.020;2022-07-23T04:20:12;15.50;99.90
43099;DHT22;28715;51.988;6.020;2022-07-23T04:22:38;15.50;99.90
43099;DHT22;28715;51.988;6.020;2022-07-23T04:25:04;15.50;99.90
43099;DHT22;28715;51.988;6.020;2022-07-23T04:27:29;15.50;99.90
43099;DHT22;28715;51.988;6.020;2022-07-23T04:29:55;15.50;99.90
43099;DHT22;28715;51.988;6.020;2022-07-23T04:32:21;15.50;99.90
43099;DHT22;28715;51.988;6.020;2022-07-23T04:34:46;15.50;99.90
43099;DHT22;28715;51.988;6.020;2022-07-23T04:37:12;15.50;99.90
43099;DHT22;28715;51.988;6.020;2022-07-23T04:39:37;15.50;99.90
43099;DHT22;28715;51.988;6.020;2022-07-23T04:42:03;15.50;99.90
43099;DHT22;28715;51.988;6.020;2022-07-23T04:44:28;15.60;99.90
43099;DHT22;28715;51.988;6.020;2022-07-23T04:46:54;15.60;99.90
43099;DHT22;28715;51.988;6.020;2022-07-23T04:49:20;15.60;99.90
43099;DHT22;28715;51.988;6.020;2022-07-23T04:51:45;15.70;99.90
43099;DHT22;28715;51.988;6.020;2022-07-23T04:54:11;15.70;99.90
43099;DHT22;28715;51.988;6.020;2022-07-23T04:56:36;15.70;99.90
43099;DHT22;28715;51.988;6.020;2022-07-23T04:59:02;15.80;99.90
43099;DHT22;28715;51.988;6.020;2022-07-23T05:01:27;15.80;99.90
43099;DHT22;28715;51.988;6.020;2022-07-23T05:03:53;15.90;99.90
43099;DHT22;28715;51.988;6.020;2022-07-23T05:06:18;15.90;99.90
43099;DHT22;28715;51.988;6.020;2022-07-23T05:08:44;15.90;99.90
43099;DHT22;28715;51.988;6.020;2022-07-23T05:11:09;16.00;99.90
43099;DHT22;28715;51.988;6.020;2022-07-23T05:13:35;16.00;99.90
43099;DHT22;28715;51.988;6.020;2022-07-23T05:16:01;16.10;99.90
43099;DHT22;28715;51.988;6.020;2022-07-23T05:18:26;16.10;99.90
43099;DHT22;28715;51.988;6.020;2022-07-23T05:20:52;16.20;99.90
43099;DHT22;28715;51.988;6.020;2022-07-23T05:23:17;16.20;99.90
43099;DHT22;28715;51.988;6.020;2022-07-23T05:25:43;16.30;99.90
43099;DHT22;28715;51.988;6.020;2022-07-23T05:28:08;16.40;99.90
43099;DHT22;28715;51.988;6.020;2022-07-23T05:30:34;16.40;99.90
43099;DHT22;28715;51.988;6.020;2022-07-23T05:32:59;16.60;99.90
43099;DHT22;28715;51.988;6.020;2022-07-23T05:35:25;16.60;99.90
43099;DHT22;28715;51.988;6.020;2022-07-23T05:37:50;16.70;99.90
43099;DHT22;28715;51.988;6.020;2022-07-23T05:40:18;16.80;99.90
43099;DHT22;28715;51.988;6.020;2022-07-23T05:42:43;17.00;99.90
43099;DHT22;28715;51.988;6.020;2022-07-23T05:45:09;17.30;99.90
43099;DHT22;28715;51.988;6.020;2022-07-23T05:47:42;17.60;99.90
43099;DHT22;28715;51.988;6.020;2022-07-23T05:50:09;17.90;99.90
43099;DHT22;28715;51.988;6.020;2022-07-23T05:52:35;18.20;99.90
43099;DHT22;28715;51.988;6.020;2022-07-23T05:55:01;18.30;99.70
43099;DHT22;28715;51.988;6.020;2022-07-23T05:57:26;18.30;99.40
43099;DHT22;28715;51.988;6.020;2022-07-23T05:59:52;18.30;99.00
43099;DHT22;28715;51.988;6.020;2022-07-23T06:02:17;18.20;98.80
43099;DHT22;28715;51.988;6.020;2022-07-23T06:04:43;18.20;98.80
43099;DHT22;28715;51.988;6.020;2022-07-23T06:07:08;18.20;98.80
43099;DHT22;28715;51.988;6.020;2022-07-23T06:09:34;18.30;98.80
43099;DHT22;28715;51.988;6.020;2022-07-23T06:11:59;18.30;98.60
43099;DHT22;28715;51.988;6.020;2022-07-23T06:14:25;18.40;98.50
43099;DHT22;28715;51.988;6.020;2022-07-23T06:16:50;18.70;98.20
43099;DHT22;28715;51.988;6.020;2022-07-23T06:19:16;18.90;97.80
43099;DHT22;28715;51.988;6.020;2022-07-23T06:21:41;19.10;97.40
43099;DHT22;28715;51.988;6.020;2022-07-23T06:24:07;19.20;96.80
43099;DHT22;28715;51.988;6.020;2022-07-23T06:26:33;19.20;96.70
43099;DHT22;28715;51.988;6.020;2022-07-23T06:28:58;19.20;96.80
43099;DHT22;28715;51.988;6.020;2022-07-23T06:31:24;19.30;96.30
43099;DHT22;28715;51.988;6.020;2022-07-23T06:33:49;19.30;96.60
43099;DHT22;28715;51.988;6.020;2022-07-23T06:36:15;19.20;96.10
43099;DHT22;28715;51.988;6.020;2022-07-23T06:38:41;19.20;95.80
43099;DHT22;28715;51.988;6.020;2022-07-23T06:41:06;19.30;95.60
43099;DHT22;28715;51.988;6.020;2022-07-23T06:43:32;19.30;95.60
43099;DHT22;28715;51.988;6.020;2022-07-23T06:45:57;19.30;95.80
43099;DHT22;28715;51.988;6.020;2022-07-23T06:48:23;19.40;96.00
43099;DHT22;28715;51.988;6.020;2022-07-23T06:50:48;19.50;95.70
43099;DHT22;28715;51.988;6.020;2022-07-23T06:53:14;19.70;95.80
43099;DHT22;28715;51.988;6.020;2022-07-23T06:55:39;19.80;95.50
43099;DHT22;28715;51.988;6.020;2022-07-23T06:58:06;19.90;95.00
43099;DHT22;28715;51.988;6.020;2022-07-23T07:00:31;20.10;94.80
43099;DHT22;28715;51.988;6.020;2022-07-23T07:02:57;20.40;94.40
43099;DHT22;28715;51.988;6.020;2022-07-23T07:05:23;20.80;94.00
43099;DHT22;28715;51.988;6.020;2022-07-23T07:07:50;21.20;93.40
43099;DHT22;28715;51.988;6.020;2022-07-23T07:10:16;21.70;92.60
43099;DHT22;28715;51.988;6.020;2022-07-23T07:12:42;22.00;92.20
43099;DHT22;28715;51.988;6.020;2022-07-23T07:15:08;22.40;91.50
43099;DHT22;28715;51.988;6.020;2022-07-23T07:17:34;22.80;91.50
43099;DHT22;28715;51.988;6.020;2022-07-23T07:19:59;23.20;90.30
43099;DHT22;28715;51.988;6.020;2022-07-23T07:22:25;23.50;90.30
43099;DHT22;28715;51.988;6.020;2022-07-23T07:24:51;23.80;88.50
43099;DHT22;28715;51.988;6.020;2022-07-23T07:27:16;24.10;87.50
43099;DHT22;28715;51.988;6.020;2022-07-23T07:29:42;24.50;86.80
43099;DHT22;28715;51.988;6.020;2022-07-23T07:32:07;24.80;84.70
43099;DHT22;28715;51.988;6.020;2022-07-23T07:34:33;25.10;83.70
43099;DHT22;28715;51.988;6.020;2022-07-23T07:36:58;25.40;82.20
43099;DHT22;28715;51.988;6.020;2022-07-23T07:39:24;25.40;81.50
43099;DHT22;28715;51.988;6.020;2022-07-23T07:41:49;25.50;81.10
43099;DHT22;28715;51.988;6.020;2022-07-23T07:44:15;25.60;80.10
43099;DHT22;28715;51.988;6.020;2022-07-23T07:46:41;25.80;79.80
43099;DHT22;28715;51.988;6.020;2022-07-23T07:49:07;25.90;79.40
43099;DHT22;28715;51.988;6.020;2022-07-23T07:51:32;26.10;77.80
43099;DHT22;28715;51.988;6.020;2022-07-23T07:53:58;26.30;75.90
43099;DHT22;28715;51.988;6.020;2022-07-23T07:56:23;26.40;77.00
43099;DHT22;28715;51.988;6.020;2022-07-23T07:58:49;26.60;75.90
43099;DHT22;28715;51.988;6.020;2022-07-23T08:01:15;26.70;76.90
43099;DHT22;28715;51.988;6.020;2022-07-23T08:03:40;26.80;75.40
43099;DHT22;28715;51.988;6.020;2022-07-23T08:06:06;26.90;73.50
43099;DHT22;28715;51.988;6.020;2022-07-23T08:08:31;27.00;75.00
43099;DHT22;28715;51.988;6.020;2022-07-23T08:10:57;27.10;74.50
43099;DHT22;28715;51.988;6.020;2022-07-23T08:13:22;27.20;72.70
43099;DHT22;28715;51.988;6.020;2022-07-23T08:15:48;27.20;73.70
43099;DHT22;28715;51.988;6.020;2022-07-23T08:18:14;27.20;71.10
43099;DHT22;28715;51.988;6.020;2022-07-23T08:20:39;27.30;73.40
43099;DHT22;28715;51.988;6.020;2022-07-23T08:23:06;27.30;72.40
43099;DHT22;28715;51.988;6.020;2022-07-23T08:25:35;27.30;70.90
43099;DHT22;28715;51.988;6.020;2022-07-23T08:28:03;27.40;69.90
43099;DHT22;28715;51.988;6.020;2022-07-23T08:30:30;27.40;71.70
43099;DHT22;28715;51.988;6.020;2022-07-23T08:35:31;27.60;71.10
43099;DHT22;28715;51.988;6.020;2022-07-23T08:37:59;27.60;73.30
43099;DHT22;28715;51.988;6.020;2022-07-23T08:40:27;27.40;71.30
43099;DHT22;28715;51.988;6.020;2022-07-23T08:42:53;27.20;72.20
43099;DHT22;28715;51.988;6.020;2022-07-23T08:45:20;27.30;72.10
43099;DHT22;28715;51.988;6.020;2022-07-23T08:47:54;27.40;69.50
43099;DHT22;28715;51.988;6.020;2022-07-23T08:50:21;27.70;71.00
43099;DHT22;28715;51.988;6.020;2022-07-23T08:52:48;27.80;70.80
43099;DHT22;28715;51.988;6.020;2022-07-23T08:55:17;27.80;70.60
43099;DHT22;28715;51.988;6.020;2022-07-23T08:57:43;27.80;72.10
43099;DHT22;28715;51.988;6.020;2022-07-23T09:00:09;27.90;68.80
43099;DHT22;28715;51.988;6.020;2022-07-23T09:02:42;27.90;69.00
43099;DHT22;28715;51.988;6.020;2022-07-23T09:05:09;27.80;67.60
43099;DHT22;28715;51.988;6.020;2022-07-23T09:07:37;27.70;69.10
43099;DHT22;28715;51.988;6.020;2022-07-23T09:10:10;27.80;68.90
43099;DHT22;28715;51.988;6.020;2022-07-23T09:12:37;28.00;68.90
43099;DHT22;28715;51.988;6.020;2022-07-23T09:15:08;28.10;68.40
43099;DHT22;28715;51.988;6.020;2022-07-23T09:17:41;28.20;68.00
43099;DHT22;28715;51.988;6.020;2022-07-23T09:20:10;28.40;67.80
43099;DHT22;28715;51.988;6.020;2022-07-23T09:22:36;28.40;66.40
43099;DHT22;28715;51.988;6.020;2022-07-23T09:25:03;28.50;67.80
43099;DHT22;28715;51.988;6.020;2022-07-23T09:30:16;28.70;64.00
43099;DHT22;28715;51.988;6.020;2022-07-23T09:32:42;28.80;64.70
43099;DHT22;28715;51.988;6.020;2022-07-23T09:35:08;28.90;63.70
43099;DHT22;28715;51.988;6.020;2022-07-23T09:37:35;29.00;63.00
43099;DHT22;28715;51.988;6.020;2022-07-23T09:40:19;29.00;64.70
43099;DHT22;28715;51.988;6.020;2022-07-23T09:42:55;29.10;64.00
43099;DHT22;28715;51.988;6.020;2022-07-23T09:45:20;29.10;62.90
43099;DHT22;28715;51.988;6.020;2022-07-23T09:47:47;29.30;63.00
43099;DHT22;28715;51.988;6.020;2022-07-23T09:50:13;29.40;62.90
43099;DHT22;28715;51.988;6.020;2022-07-23T09:55:09;29.40;62.90
43099;DHT22;28715;51.988;6.020;2022-07-23T09:57:35;29.30;63.00
43099;DHT22;28715;51.988;6.020;2022-07-23T10:00:04;29.20;62.60
43099;DHT22;28715;51.988;6.020;2022-07-23T10:02:32;29.20;63.40
43099;DHT22;28715;51.988;6.020;2022-07-23T10:04:59;29.20;62.70
43099;DHT22;28715;51.988;6.020;2022-07-23T10:07:26;29.20;63.60
43099;DHT22;28715;51.988;6.020;2022-07-23T10:09:55;29.30;63.20
43099;DHT22;28715;51.988;6.020;2022-07-23T10:12:22;29.30;62.30
43099;DHT22;28715;51.988;6.020;2022-07-23T10:15:06;29.10;61.70
43099;DHT22;28715;51.988;6.020;2022-07-23T10:17:34;29.00;63.40
43099;DHT22;28715;51.988;6.020;2022-07-23T10:20:00;28.90;63.40
43099;DHT22;28715;51.988;6.020;2022-07-23T10:22:31;28.90;63.00
43099;DHT22;28715;51.988;6.020;2022-07-23T10:25:17;28.90;63.20
43099;DHT22;28715;51.988;6.020;2022-07-23T10:31:01;28.70;63.40
43099;DHT22;28715;51.988;6.020;2022-07-23T10:33:55;28.50;63.60
43099;DHT22;28715;51.988;6.020;2022-07-23T10:36:38;28.50;62.70
43099;DHT22;28715;51.988;6.020;2022-07-23T10:39:10;28.40;63.00
43099;DHT22;28715;51.988;6.020;2022-07-23T10:41:40;28.30;64.50
43099;DHT22;28715;51.988;6.020;2022-07-23T10:44:07;28.40;63.70
43099;DHT22;28715;51.988;6.020;2022-07-23T10:46:34;28.40;62.60
43099;DHT22;28715;51.988;6.020;2022-07-23T10:54:51;28.30;62.80
43099;DHT22;28715;51.988;6.020;2022-07-23T10:57:21;27.90;67.30
43099;DHT22;28715;51.988;6.020;2022-07-23T11:02:29;27.90;68.00
43099;DHT22;28715;51.988;6.020;2022-07-23T11:05:00;27.90;66.10
43099;DHT22;28715;51.988;6.020;2022-07-23T11:07:26;28.00;67.40
43099;DHT22;28715;51.988;6.020;2022-07-23T11:09:52;28.00;64.00
43099;DHT22;28715;51.988;6.020;2022-07-23T11:15:00;28.20;65.60
43099;DHT22;28715;51.988;6.020;2022-07-23T11:17:26;28.20;65.10
43099;DHT22;28715;51.988;6.020;2022-07-23T11:22:47;28.40;62.40
43099;DHT22;28715;51.988;6.020;2022-07-23T11:30:40;28.40;63.90
43099;DHT22;28715;51.988;6.020;2022-07-23T11:35:32;28.10;65.20
43099;DHT22;28715;51.988;6.020;2022-07-23T11:38:12;28.10;66.70
43099;DHT22;28715;51.988;6.020;2022-07-23T11:40:38;28.20;64.70
43099;DHT22;28715;51.988;6.020;2022-07-23T11:43:09;28.30;64.70
43099;DHT22;28715;51.988;6.020;2022-07-23T11:45:37;28.20;61.90
43099;DHT22;28715;51.988;6.020;2022-07-23T11:48:06;28.20;62.50
43099;DHT22;28715;51.988;6.020;2022-07-23T11:50:32;28.10;61.00
43099;DHT22;28715;51.988;6.020;2022-07-23T11:52:58;28.10;62.50
43099;DHT22;28715;51.988;6.020;2022-07-23T11:55:24;28.30;63.70
43099;DHT22;28715;51.988;6.020;2022-07-23T11:57:52;28.40;65.80
43099;DHT22;28715;51.988;6.020;2022-07-23T12:00:24;28.50;65.60
43099;DHT22;28715;51.988;6.020;2022-07-23T12:02:57;28.40;64.30
43099;DHT22;28715;51.988;6.020;2022-07-23T12:05:30;28.50;64.60
43099;DHT22;28715;51.988;6.020;2022-07-23T12:07:57;28.50;63.30
43099;DHT22;28715;51.988;6.020;2022-07-23T12:10:37;28.50;63.70
43099;DHT22;28715;51.988;6.020;2022-07-23T12:13:07;28.50;63.10
43099;DHT22;28715;51.988;6.020;2022-07-23T12:15:38;28.50;62.70
43099;DHT22;28715;51.988;6.020;2022-07-23T12:18:06;28.50;63.60
43099;DHT22;28715;51.988;6.020;2022-07-23T12:20:38;28.40;63.90
43099;DHT22;28715;51.988;6.020;2022-07-23T12:23:06;28.30;64.30
43099;DHT22;28715;51.988;6.020;2022-07-23T12:25:34;28.20;63.80
43099;DHT22;28715;51.988;6.020;2022-07-23T12:28:09;28.20;61.80
43099;DHT22;28715;51.988;6.020;2022-07-23T12:30:54;28.30;64.20
43099;DHT22;28715;51.988;6.020;2022-07-23T12:33:33;28.50;62.90
43099;DHT22;28715;51.988;6.020;2022-07-23T12:36:05;28.70;64.50
43099;DHT22;28715;51.988;6.020;2022-07-23T12:38:47;28.60;62.40
43099;DHT22;28715;51.988;6.020;2022-07-23T12:41:14;28.50;64.60
43099;DHT22;28715;51.988;6.020;2022-07-23T12:43:43;28.40;62.60
43099;DHT22;28715;51.988;6.020;2022-07-23T12:46:11;28.40;61.10
43099;DHT22;28715;51.988;6.020;2022-07-23T12:48:50;28.40;60.50
43099;DHT22;28715;51.988;6.020;2022-07-23T12:53:51;28.60;61.20
43099;DHT22;28715;51.988;6.020;2022-07-23T12:56:32;28.70;62.20
43099;DHT22;28715;51.988;6.020;2022-07-23T12:59:05;28.90;61.70
43099;DHT22;28715;51.988;6.020;2022-07-23T13:01:34;29.10;60.70
43099;DHT22;28715;51.988;6.020;2022-07-23T13:04:04;29.20;59.60
43099;DHT22;28715;51.988;6.020;2022-07-23T13:06:39;29.10;59.00
43099;DHT22;28715;51.988;6.020;2022-07-23T13:09:07;29.10;60.00
43099;DHT22;28715;51.988;6.020;2022-07-23T13:11:33;29.10;59.00
43099;DHT22;28715;51.988;6.020;2022-07-23T13:13:59;28.90;59.30
43099;DHT22;28715;51.988;6.020;2022-07-23T13:16:29;28.80;59.80
43099;DHT22;28715;51.988;6.020;2022-07-23T13:18:55;28.90;60.50
43099;DHT22;28715;51.988;6.020;2022-07-23T13:21:24;29.00;60.00
43099;DHT22;28715;51.988;6.020;2022-07-23T13:23:50;29.00;59.60
43099;DHT22;28715;51.988;6.020;2022-07-23T13:26:16;28.80;59.30
43099;DHT22;28715;51.988;6.020;2022-07-23T13:28:42;28.70;59.40
43099;DHT22;28715;51.988;6.020;2022-07-23T13:31:08;28.50;60.00
43099;DHT22;28715;51.988;6.020;2022-07-23T13:33:33;28.30;60.50
43099;DHT22;28715;51.988;6.020;2022-07-23T13:35:59;28.10;60.50
43099;DHT22;28715;51.988;6.020;2022-07-23T13:38:25;28.10;61.30
43099;DHT22;28715;51.988;6.020;2022-07-23T13:40:52;28.30;62.50
43099;DHT22;28715;51.988;6.020;2022-07-23T13:43:21;28.40;62.30
43099;DHT22;28715;51.988;6.020;2022-07-23T13:45:47;28.40;61.10
43099;DHT22;28715;51.988;6.020;2022-07-23T13:48:14;28.40;60.00
43099;DHT22;28715;51.988;6.020;2022-07-23T13:50:41;28.30;61.80
43099;DHT22;28715;51.988;6.020;2022-07-23T13:53:09;28.20;60.90
43099;DHT22;28715;51.988;6.020;2022-07-23T13:55:37;28.20;61.20
43099;DHT22;28715;51.988;6.020;2022-07-23T13:58:04;28.10;61.20
43099;DHT22;28715;51.988;6.020;2022-07-23T14:00:31;28.20;62.40
43099;DHT22;28715;51.988;6.020;2022-07-23T14:02:58;28.30;62.60
43099;DHT22;28715;51.988;6.020;2022-07-23T14:05:24;28.60;61.40
43099;DHT22;28715;51.988;6.020;2022-07-23T14:07:49;28.60;60.70
43099;DHT22;28715;51.988;6.020;2022-07-23T14:10:18;28.70;61.30
43099;DHT22;28715;51.988;6.020;2022-07-23T14:12:45;28.80;61.30
43099;DHT22;28715;51.988;6.020;2022-07-23T14:15:10;28.70;59.80
43099;DHT22;28715;51.988;6.020;2022-07-23T14:17:37;28.60;59.60
43099;DHT22;28715;51.988;6.020;2022-07-23T14:20:04;28.40;62.50
43099;DHT22;28715;51.988;6.020;2022-07-23T14:22:30;28.20;61.40
43099;DHT22;28715;51.988;6.020;2022-07-23T14:24:56;28.00;60.90
43099;DHT22;28715;51.988;6.020;2022-07-23T14:27:23;27.90;61.60
43099;DHT22;28715;51.988;6.020;2022-07-23T14:29:48;27.80;64.20
43099;DHT22;28715;51.988;6.020;2022-07-23T14:32:14;27.80;63.70
43099;DHT22;28715;51.988;6.020;2022-07-23T14:34:39;27.80;65.00
43099;DHT22;28715;51.988;6.020;2022-07-23T14:37:05;27.80;63.10
43099;DHT22;28715;51.988;6.020;2022-07-23T14:39:31;27.80;62.20
43099;DHT22;28715;51.988;6.020;2022-07-23T14:41:56;27.80;63.20
43099;DHT22;28715;51.988;6.020;2022-07-23T14:44:22;27.80;64.90
43099;DHT22;28715;51.988;6.020;2022-07-23T14:46:48;27.90;64.90
43099;DHT22;28715;51.988;6.020;2022-07-23T14:49:13;28.00;61.80
43099;DHT22;28715;51.988;6.020;2022-07-23T14:51:39;28.10;62.40
43099;DHT22;28715;51.988;6.020;2022-07-23T14:54:07;28.10;63.60
43099;DHT22;28715;51.988;6.020;2022-07-23T14:56:33;28.10;63.40
43099;DHT22;28715;51.988;6.020;2022-07-23T14:58:59;28.00;65.20
43099;DHT22;28715;51.988;6.020;2022-07-23T15:01:24;28.00;64.60
43099;DHT22;28715;51.988;6.020;2022-07-23T15:03:50;27.90;62.60
43099;DHT22;28715;51.988;6.020;2022-07-23T15:06:16;27.80;63.50
43099;DHT22;28715;51.988;6.020;2022-07-23T15:08:43;27.80;63.20
43099;DHT22;28715;51.988;6.020;2022-07-23T15:11:08;27.80;64.20
43099;DHT22;28715;51.988;6.020;2022-07-23T15:13:35;27.70;64.80
43099;DHT22;28715;51.988;6.020;2022-07-23T15:16:01;27.70;64.60
43099;DHT22;28715;51.988;6.020;2022-07-23T15:18:27;27.70;63.80
43099;DHT22;28715;51.988;6.020;2022-07-23T15:20:52;27.70;64.40
43099;DHT22;28715;51.988;6.020;2022-07-23T15:23:18;27.80;63.50
43099;DHT22;28715;51.988;6.020;2022-07-23T15:25:43;27.80;64.20
43099;DHT22;28715;51.988;6.020;2022-07-23T15:28:09;28.00;61.60
43099;DHT22;28715;51.988;6.020;2022-07-23T15:30:35;28.10;62.30
43099;DHT22;28715;51.988;6.020;2022-07-23T15:33:00;28.30;62.80
43099;DHT22;28715;51.988;6.020;2022-07-23T15:35:26;28.50;61.50
43099;DHT22;28715;51.988;6.020;2022-07-23T15:37:51;28.60;61.10
43099;DHT22;28715;51.988;6.020;2022-07-23T15:40:17;28.70;64.00
43099;DHT22;28715;51.988;6.020;2022-07-23T15:42:42;28.70;64.30
43099;DHT22;28715;51.988;6.020;2022-07-23T15:45:08;28.60;65.00
43099;DHT22;28715;51.988;6.020;2022-07-23T15:47:34;28.50;63.60
43099;DHT22;28715;51.988;6.020;2022-07-23T15:50:00;28.40;64.20
43099;DHT22;28715;51.988;6.020;2022-07-23T15:52:25;28.40;65.00
43099;DHT22;28715;51.988;6.020;2022-07-23T15:54:51;28.40;64.40
43099;DHT22;28715;51.988;6.020;2022-07-23T15:57:16;28.40;63.30
43099;DHT22;28715;51.988;6.020;2022-07-23T15:59:42;28.40;62.50
43099;DHT22;28715;51.988;6.020;2022-07-23T16:02:07;28.40;64.60
43099;DHT22;28715;51.988;6.020;2022-07-23T16:04:33;28.40;64.60